createdAt,value
2019-03-23T00:14:32.903Z,22.40
2019-03-23T00:29:35.888Z,22.40
2019-03-23T00:44:38.687Z,22.30
2019-03-23T00:59:41.462Z,22.60
2019-03-23T01:14:45.093Z,22.40
2019-03-23T01:29:47.900Z,22.30
2019-03-23T01:44:50.679Z,22.20
2019-03-23T01:59:53.469Z,22.20
2019-03-23T02:14:56.271Z,22.20
2019-03-23T02:29:59.050Z,22.20
2019-03-23T02:45:01.850Z,22.20
2019-03-23T03:00:04.948Z,22.40
2019-03-23T03:15:07.736Z,22.20
2019-03-23T03:30:10.581Z,22.20
2019-03-23T03:45:13.316Z,22.10
2019-03-23T04:00:16.115Z,22.10
2019-03-23T04:15:18.922Z,22.10
2019-03-23T04:30:24.448Z,22.40
2019-03-23T04:45:27.241Z,22.50
2019-03-23T05:00:30.129Z,22.40
2019-03-23T05:15:32.970Z,22.20
2019-03-23T05:30:35.706Z,22.10
2019-03-23T05:45:38.491Z,22.20
2019-03-23T06:00:41.278Z,22.20
2019-03-23T06:15:44.104Z,22.10
2019-03-23T06:30:46.894Z,22.00
2019-03-23T06:45:49.690Z,21.50
2019-03-23T07:00:52.929Z,21.70
2019-03-23T07:15:55.710Z,21.90
2019-03-23T07:30:58.508Z,21.70
2019-03-23T07:46:01.927Z,22.00
2019-03-23T08:01:04.718Z,22.20
2019-03-23T08:16:07.499Z,9.90
2019-03-23T08:31:10.276Z,8.50
2019-03-23T08:46:13.064Z,8.50
2019-03-23T09:01:15.854Z,8.50
2019-03-23T09:16:18.644Z,8.60
2019-03-23T09:31:21.421Z,8.10
2019-03-23T09:46:24.219Z,8.50
2019-03-23T10:01:27.018Z,9.20
2019-03-23T10:16:29.807Z,9.00
2019-03-23T10:31:32.600Z,9.90
2019-03-23T10:46:35.388Z,9.30
2019-03-23T11:01:38.186Z,9.30
2019-03-23T11:16:40.992Z,9.30
2019-03-23T11:31:43.797Z,9.10
2019-03-23T11:46:46.587Z,9.40
2019-03-23T12:01:52.030Z,9.70
2019-03-23T12:16:52.613Z,9.60
2019-03-23T12:31:55.410Z,10.30
2019-03-23T12:46:58.205Z,11.50
2019-03-23T13:02:00.993Z,12.20
2019-03-23T13:17:03.937Z,12.40
2019-03-23T13:32:06.735Z,14.40
2019-03-23T13:47:09.527Z,15.30
2019-03-23T14:02:12.350Z,14.70
2019-03-23T14:17:15.136Z,13.70
2019-03-23T14:32:17.928Z,13.40
2019-03-23T14:47:20.772Z,13.40
2019-03-23T15:02:23.558Z,12.70
2019-03-23T15:17:27.915Z,12.10
2019-03-23T15:32:31.485Z,11.50
2019-03-23T15:47:34.266Z,11.20
2019-03-23T16:02:37.060Z,10.90
2019-03-23T16:17:39.992Z,10.80
2019-03-23T16:32:42.780Z,10.30
2019-03-23T16:47:45.570Z,10.20
2019-03-23T17:02:48.365Z,9.80
2019-03-23T17:17:51.149Z,9.40
2019-03-23T17:32:53.943Z,9.10
2019-03-23T17:47:56.756Z,8.90
2019-03-23T18:03:00.245Z,8.70
2019-03-23T18:18:03.040Z,8.60
2019-03-23T18:33:05.820Z,8.50
2019-03-23T18:48:08.722Z,8.20
2019-03-23T19:03:11.512Z,8.00
2019-03-23T19:18:14.318Z,7.60
2019-03-23T19:33:17.102Z,7.60
2019-03-23T19:48:20.040Z,7.40
2019-03-23T20:03:22.975Z,7.20
2019-03-23T20:18:30.702Z,7.10
2019-03-23T20:33:34.541Z,6.80
2019-03-23T20:48:37.428Z,6.70
2019-03-23T21:03:40.330Z,6.50
2019-03-23T21:18:43.122Z,6.40
2019-03-23T21:33:45.933Z,6.30
2019-03-23T21:48:48.713Z,6.00
2019-03-23T22:03:51.596Z,5.70
2019-03-23T22:18:54.396Z,5.30
2019-03-23T22:33:57.270Z,5.50
2019-03-23T22:49:00.066Z,5.10
2019-03-23T23:04:02.850Z,4.90
2019-03-23T23:19:05.635Z,4.80
2019-03-23T23:34:08.419Z,4.80
2019-03-23T23:49:11.205Z,4.80
